Time;durP1;ratioP1;P1;durP2;ratioP2;P2;SDS_P1;SDS_P2;PMS_P1;PMS_P2;Temp;Humidity;BMP_temperature;BMP_pressure;BME280_temperature;BME280_humidity;BME280_pressure;Samples;Min_cycle;Max_cycle;Signal;HPM_P1;HPM_P2
2020/12/08 00:02:01;;;;;;;11.70;6.73;;;;;;;-6.57;71.67;100609.49;1793212;79;21759;-59
2020/12/08 00:04:28;;;;;;;15.40;5.77;;;;;;;-6.60;71.66;100606.88;1780971;79;21573;-61
2020/12/08 00:06:56;;;;;;;14.80;6.47;;;;;;;-6.60;71.72;100602.95;1786801;79;21161;-60
2020/12/08 00:09:26;;;;;;;17.43;7.43;;;;;;;-6.62;71.69;100601.64;1787351;79;21235;-60
2020/12/08 00:11:53;;;;;;;13.17;6.20;;;;;;;-6.68;71.83;100605.53;1780707;79;21538;-60
2020/12/08 00:14:21;;;;;;;13.03;6.40;;;;;;;-6.71;72.08;100595.06;1786677;80;21136;-60
2020/12/08 00:16:48;;;;;;;14.57;6.30;;;;;;;-6.69;72.10;100589.39;1796942;79;21118;-60
2020/12/08 00:19:16;;;;;;;14.50;6.40;;;;;;;-6.73;72.20;100574.53;1784571;79;21114;-60
2020/12/08 00:21:44;;;;;;;14.20;6.67;;;;;;;-6.75;72.22;100587.19;1775477;79;21317;-60
2020/12/08 00:24:12;;;;;;;12.87;5.83;;;;;;;-6.74;72.28;100582.37;1797836;79;21115;-60
2020/12/08 00:26:40;;;;;;;14.60;6.13;;;;;;;-6.73;72.14;100573.22;1798727;79;21554;-60
2020/12/08 00:29:10;;;;;;;15.40;6.50;;;;;;;-6.74;72.09;100572.77;1785692;79;21131;-60
2020/12/08 00:31:37;;;;;;;17.07;7.67;;;;;;;-6.79;72.05;100579.73;1813627;79;21488;-60
2020/12/08 00:34:05;;;;;;;12.00;6.83;;;;;;;-6.84;72.24;100566.19;1801888;79;21332;-61
2020/12/08 00:36:33;;;;;;;13.87;5.87;;;;;;;-6.89;72.28;100576.66;1767641;80;22159;-60
2020/12/08 00:39:01;;;;;;;13.93;6.33;;;;;;;-6.89;72.36;100562.25;1801618;79;21532;-62
2020/12/08 00:41:29;;;;;;;12.57;6.87;;;;;;;-6.92;72.47;100570.09;1763401;80;21123;-59
2020/12/08 00:43:56;;;;;;;14.17;6.73;;;;;;;-6.91;72.66;100554.83;1798588;79;21119;-60
2020/12/08 00:46:24;;;;;;;14.13;7.23;;;;;;;-6.92;72.63;100560.92;1806549;79;21135;-60
2020/12/08 00:48:52;;;;;;;14.63;7.10;;;;;;;-6.89;72.65;100557.01;1791890;79;21154;-60
2020/12/08 00:51:21;;;;;;;12.17;6.73;;;;;;;-6.87;72.61;100569.67;1788110;79;21143;-61
2020/12/08 00:53:49;;;;;;;14.27;6.33;;;;;;;-6.88;72.59;100574.49;1798568;79;21210;-59
2020/12/08 00:56:17;;;;;;;15.53;6.17;;;;;;;-6.90;72.69;100561.37;1805687;78;21170;-60
2020/12/08 00:58:46;;;;;;;13.07;6.13;;;;;;;-6.89;72.73;100565.75;1805143;79;21146;-60
2020/12/08 01:01:15;;;;;;;20.53;6.67;;;;;;;-6.89;72.79;100568.80;1789482;79;21123;-61
2020/12/08 01:03:43;;;;;;;13.97;6.57;;;;;;;-6.90;72.80;100574.89;1792174;79;21135;-60
2020/12/08 01:06:11;;;;;;;12.30;6.27;;;;;;;-6.90;72.90;100559.17;1794773;79;21187;-60
2020/12/08 01:08:41;;;;;;;16.77;6.27;;;;;;;-6.89;72.98;100550.45;1782223;79;21162;-60
2020/12/08 01:11:09;;;;;;;14.00;6.40;;;;;;;-6.90;73.09;100556.13;1782149;79;21350;-59
2020/12/08 01:13:39;;;;;;;11.93;5.63;;;;;;;-6.91;73.20;100553.52;1743408;81;21119;-60
2020/12/08 01:16:09;;;;;;;14.00;6.10;;;;;;;-6.86;73.32;100546.09;1756929;80;21134;-60
2020/12/08 01:18:37;;;;;;;14.10;6.97;;;;;;;-6.80;73.29;100537.81;1803070;79;21260;-60
2020/12/08 01:21:05;;;;;;;13.07;6.07;;;;;;;-6.79;73.18;100533.88;1793680;79;21273;-59
2020/12/08 01:23:33;;;;;;;13.30;6.00;;;;;;;-6.79;73.17;100537.80;1804581;79;21139;-60
2020/12/08 01:26:01;;;;;;;13.40;7.07;;;;;;;-6.83;73.21;100541.30;1804830;79;21127;-60
2020/12/08 01:28:28;;;;;;;18.03;7.70;;;;;;;-6.82;73.27;100550.04;1809050;79;21123;-60
2020/12/08 01:30:57;;;;;;;12.13;6.23;;;;;;;-6.83;73.38;100559.64;1806325;79;21410;-60
2020/12/08 01:33:26;;;;;;;13.33;5.53;;;;;;;-6.76;73.46;100561.41;1808558;79;21309;-60
2020/12/08 01:35:54;;;;;;;13.20;6.43;;;;;;;-6.73;73.29;100556.19;1791841;79;21170;-60
2020/12/08 01:38:25;;;;;;;13.37;7.00;;;;;;;-6.76;73.30;100557.91;1800527;79;21163;-61
2020/12/08 01:40:55;;;;;;;14.70;6.67;;;;;;;-6.76;73.43;100557.91;1800285;79;21300;-61
2020/12/08 01:43:25;;;;;;;15.13;6.70;;;;;;;-6.72;73.55;100552.67;1801129;78;21580;-61
2020/12/08 01:45:54;;;;;;;16.37;7.70;;;;;;;-6.63;73.53;100570.16;1787465;79;21139;-60
2020/12/08 01:48:22;;;;;;;16.27;7.03;;;;;;;-6.59;73.35;100554.45;1794841;79;21154;-60
2020/12/08 01:50:51;;;;;;;14.00;7.20;;;;;;;-6.58;73.28;100556.21;1806877;79;21449;-60
2020/12/08 01:53:19;;;;;;;15.63;6.43;;;;;;;-6.56;73.18;100547.03;1809819;79;21193;-61
2020/12/08 01:55:48;;;;;;;14.97;5.90;;;;;;;-6.62;73.22;100542.66;1795445;78;21169;-60
2020/12/08 01:58:21;;;;;;;14.37;6.60;;;;;;;-6.66;73.27;100546.59;1767287;81;21154;-60
2020/12/08 02:00:50;;;;;;;;;;;;;;;-6.70;73.45;100554.86;1795696;79;21119;-60
2020/12/08 02:03:19;;;;;;;13.90;6.77;;;;;;;-6.73;73.59;100543.08;1781725;78;20533;-60
2020/12/08 02:05:48;;;;;;;16.20;7.90;;;;;;;-6.77;73.72;100543.07;1784336;79;21205;-60
2020/12/08 02:08:31;;;;;;;15.30;7.73;;;;;;;-6.83;73.93;100546.53;1791532;79;21249;-61
2020/12/08 02:11:00;;;;;;;;;;;;;;;-6.86;74.05;100557.03;1808256;78;21221;-61
2020/12/08 02:13:28;;;;;;;14.70;6.90;;;;;;;-6.87;74.24;100563.13;1814698;78;20176;-60
2020/12/08 02:15:56;;;;;;;15.47;6.20;;;;;;;-6.90;74.45;100552.20;1798004;78;21154;-61
2020/12/08 02:18:25;;;;;;;14.37;7.20;;;;;;;-6.88;74.60;100565.33;1816716;78;21123;-60
2020/12/08 02:20:58;;;;;;;14.57;6.77;;;;;;;-6.86;74.64;100566.20;1802377;78;21485;-60
2020/12/08 02:23:28;;;;;;;15.67;7.60;;;;;;;-6.84;74.71;100559.22;1817958;79;21154;-60
2020/12/08 02:26:01;;;;;;;15.63;6.57;;;;;;;-6.83;74.71;100558.75;1788387;79;21640;-60
2020/12/08 02:28:31;;;;;;;16.50;6.80;;;;;;;-6.76;74.73;100547.00;1809837;78;21268;-60
2020/12/08 02:31:00;;;;;;;14.43;6.47;;;;;;;-6.70;74.65;100549.63;1789865;79;21296;-60
2020/12/08 02:33:30;;;;;;;17.83;7.57;;;;;;;-6.67;74.48;100547.44;1800434;79;21143;-60
2020/12/08 02:36:00;;;;;;;16.80;7.15;;;;;;;-6.68;74.41;100547.02;1811006;79;21133;-60
2020/12/08 02:38:28;;;;;;;17.93;6.70;;;;;;;-6.67;74.51;100547.44;1804288;79;21151;-60
2020/12/08 02:40:56;;;;;;;18.93;8.27;;;;;;;-6.68;74.53;100546.56;1808547;79;21589;-60
2020/12/08 02:43:25;;;;;;;13.23;6.23;;;;;;;-6.65;74.63;100549.20;1774498;79;21150;-59
2020/12/08 02:45:54;;;;;;;14.07;6.90;;;;;;;-6.62;74.69;100547.91;1795017;79;21154;-60
2020/12/08 02:48:21;;;;;;;18.33;7.03;;;;;;;-6.62;74.73;100541.36;1791702;80;21115;-60
2020/12/08 02:50:51;;;;;;;12.73;6.20;;;;;;;-6.58;74.80;100543.53;1818921;78;21743;-60
2020/12/08 02:53:21;;;;;;;15.40;6.90;;;;;;;-6.58;74.72;100548.34;1808864;79;21146;-60
2020/12/08 02:55:50;;;;;;;16.37;7.27;;;;;;;-6.63;74.76;100544.84;1772948;79;21166;-60
2020/12/08 02:58:19;;;;;;;14.87;7.10;;;;;;;-6.63;74.92;100549.19;1795686;79;21146;-60
2020/12/08 03:00:48;;;;;;;18.40;7.20;;;;;;;-6.63;74.97;100540.90;1799509;78;21572;-61
2020/12/08 03:03:16;;;;;;;14.50;6.63;;;;;;;-6.60;75.00;100533.48;1790694;79;21609;-60
2020/12/08 03:05:45;;;;;;;16.93;6.77;;;;;;;-6.56;75.00;100536.11;1804593;78;21150;-60
2020/12/08 03:08:14;;;;;;;14.50;6.40;;;;;;;-6.58;74.91;100536.55;1822778;78;21150;-60
2020/12/08 03:10:41;;;;;;;20.73;7.90;;;;;;;-6.56;74.89;100535.23;1744035;80;21728;-61
2020/12/08 03:13:11;;;;;;;18.37;6.67;;;;;;;-6.58;74.80;100537.86;1766853;80;21154;-60
2020/12/08 03:15:40;;;;;;;15.47;6.77;;;;;;;-6.59;74.83;100544.39;1752443;80;21198;-60
2020/12/08 03:18:10;;;;;;;14.33;6.77;;;;;;;-6.62;74.93;100549.22;1795991;79;21139;-60
2020/12/08 03:20:37;;;;;;;17.13;6.43;;;;;;;-6.63;75.03;100542.21;1809402;79;21131;-60
2020/12/08 03:23:06;;;;;;;12.73;5.73;;;;;;;-6.57;75.19;100541.33;1796240;78;21189;-61
2020/12/08 03:25:35;;;;;;;17.90;6.87;;;;;;;-6.49;75.13;100539.19;1801625;79;21178;-60
2020/12/08 03:28:04;;;;;;;15.93;7.70;;;;;;;-6.45;75.05;100542.24;1804284;79;21138;-61
2020/12/08 03:30:33;;;;;;;14.67;6.70;;;;;;;-6.45;74.90;100538.73;1789407;79;21122;-60
2020/12/08 03:33:04;;;;;;;16.47;6.87;;;;;;;-6.49;74.90;100543.55;1803127;79;21241;-62
2020/12/08 03:35:32;;;;;;;13.43;6.50;;;;;;;-6.56;75.04;100541.36;1811220;79;21139;-60
2020/12/08 03:38:00;;;;;;;15.00;7.03;;;;;;;-6.62;75.20;100535.23;1786052;79;21160;-60
2020/12/08 03:40:28;;;;;;;16.37;6.93;;;;;;;-6.65;75.41;100530.86;1790185;79;21555;-60
2020/12/08 03:42:57;;;;;;;17.60;7.43;;;;;;;-6.62;75.60;100525.63;1775918;79;21607;-60
2020/12/08 03:45:26;;;;;;;16.97;7.30;;;;;;;-6.64;75.76;100526.03;1774462;79;21146;-61
2020/12/08 03:48:05;;;;;;;15.10;6.77;;;;;;;-6.60;75.90;100525.62;1762432;79;23145;-60
2020/12/08 03:50:38;;;;;;;14.53;6.75;;;;;;;-6.66;76.02;100525.16;1728817;82;21132;-60
2020/12/08 03:53:07;;;;;;;16.47;6.57;;;;;;;-6.67;76.00;100531.29;1730417;82;21699;-60
2020/12/08 03:55:37;;;;;;;15.03;7.03;;;;;;;-6.70;76.21;100524.72;1743799;82;21159;-59
2020/12/08 03:58:06;;;;;;;13.67;6.80;;;;;;;-6.69;76.22;100528.22;1728589;82;21187;-59
2020/12/08 04:00:34;;;;;;;16.63;7.67;;;;;;;-6.75;76.34;100523.86;1735188;82;21144;-60
2020/12/08 04:03:02;;;;;;;15.40;7.80;;;;;;;-6.77;76.50;100522.11;1726699;82;21681;-60
2020/12/08 04:05:32;;;;;;;12.53;6.43;;;;;;;-6.75;76.66;100528.22;1734490;82;21174;-60
2020/12/08 04:07:59;;;;;;;15.73;6.53;;;;;;;-6.70;76.77;100526.03;1730808;82;21700;-60
2020/12/08 04:10:29;;;;;;;21.10;6.97;;;;;;;-6.72;76.81;100509.43;1723549;82;21123;-60
2020/12/08 04:12:57;;;;;;;12.87;6.97;;;;;;;-6.75;76.89;100514.69;1727676;82;21317;-60
2020/12/08 04:15:25;;;;;;;12.90;6.23;;;;;;;-6.80;77.11;100515.11;1737673;82;21173;-60
2020/12/08 04:17:53;;;;;;;15.50;7.03;;;;;;;-6.81;77.20;100512.03;1729299;82;21598;-60
2020/12/08 04:20:21;;;;;;;16.80;7.53;;;;;;;-6.81;77.30;100513.80;1745740;82;21213;-60
2020/12/08 04:22:49;;;;;;;15.47;7.17;;;;;;;-6.83;77.43;100513.78;1744644;82;21111;-59
2020/12/08 04:25:17;;;;;;;13.93;6.70;;;;;;;-6.81;77.56;100510.73;1698060;82;21166;-59
2020/12/08 04:27:45;;;;;;;13.33;7.13;;;;;;;-6.74;77.64;100513.80;1740073;82;21127;-60
2020/12/08 04:30:14;;;;;;;14.43;7.47;;;;;;;-6.69;77.53;100510.76;1727028;82;21614;-59
2020/12/08 04:32:44;;;;;;;15.83;7.10;;;;;;;-6.67;77.54;100502.89;1737422;81;21629;-60
2020/12/08 04:35:11;;;;;;;13.03;7.20;;;;;;;-6.63;77.50;100501.58;1715681;82;21127;-59
2020/12/08 04:37:39;;;;;;;13.87;7.10;;;;;;;-6.58;77.36;100497.23;1723995;82;21139;-60
2020/12/08 04:40:07;;;;;;;15.43;8.37;;;;;;;-6.63;77.27;100495.03;1723719;82;21139;-60
2020/12/08 04:42:49;;;;;;;14.97;7.23;;;;;;;-6.69;77.32;100497.66;1730499;82;21613;-60
2020/12/08 04:45:17;;;;;;;16.30;7.05;;;;;;;-6.71;77.53;100502.45;1725882;82;21146;-60
2020/12/08 04:47:45;;;;;;;14.93;6.77;;;;;;;-6.69;77.66;100506.83;1722651;82;21606;-60
2020/12/08 04:50:16;;;;;;;15.97;7.33;;;;;;;-6.73;77.71;100501.15;1718695;82;21147;-60
2020/12/08 04:52:44;;;;;;;12.57;6.47;;;;;;;-6.78;77.88;100498.06;1723786;82;21436;-60
2020/12/08 04:55:12;;;;;;;14.60;7.17;;;;;;;-6.78;78.09;100504.19;1712952;82;21143;-60
2020/12/08 04:57:40;;;;;;;16.67;7.33;;;;;;;-6.79;78.18;100499.80;1719898;82;21142;-60
2020/12/08 05:00:13;;;;;;;14.23;7.50;;;;;;;-6.76;78.30;100507.69;1729192;82;22150;-60
2020/12/08 05:02:55;;;;;;;14.43;6.62;;;;;;;-6.79;78.33;100502.42;1716982;82;21619;-61
2020/12/08 05:05:26;;;;;;;16.70;7.17;;;;;;;-6.83;78.45;100513.78;1730762;82;21523;-60
2020/12/08 05:07:55;;;;;;;14.87;7.43;;;;;;;-6.87;78.54;100512.03;1724957;82;21602;-62
2020/12/08 05:10:29;;;;;;;18.30;7.77;;;;;;;-6.88;78.71;100506.38;1700110;82;21290;-60
2020/12/08 05:13:07;;;;;;;14.40;7.40;;;;;;;-6.84;78.77;100514.67;1720882;82;21171;-62
2020/12/08 05:15:38;;;;;;;16.45;7.35;;;;;;;-6.83;78.64;100507.23;1728343;82;21167;-61
2020/12/08 05:18:08;;;;;;;19.10;8.27;;;;;;;-6.87;78.75;100505.05;1718777;82;21176;-61
2020/12/08 05:20:42;;;;;;;17.97;7.77;;;;;;;-6.85;78.87;100506.36;1704372;82;21147;-61
2020/12/08 05:23:13;;;;;;;15.17;6.93;;;;;;;-6.87;78.78;100508.10;1718104;82;21199;-62
2020/12/08 05:25:46;;;;;;;10.98;6.15;;;;;;;-6.90;78.92;100507.66;1711640;82;21293;-61
2020/12/08 05:28:19;;;;;;;14.57;7.20;;;;;;;-6.86;78.99;100499.38;1716157;82;21731;-62
2020/12/08 05:30:48;;;;;;;18.55;7.75;;;;;;;-6.86;78.93;100494.14;1720383;82;21297;-61
2020/12/08 05:33:17;;;;;;;15.97;6.80;;;;;;;-6.89;78.80;100496.74;1720472;82;21159;-60
2020/12/08 05:35:46;;;;;;;11.67;5.83;;;;;;;-6.94;78.81;100496.73;1723965;82;21150;-61
2020/12/08 05:38:15;;;;;;;16.10;7.47;;;;;;;-6.91;79.00;100505.04;1716216;82;21263;-61
2020/12/08 05:40:44;;;;;;;15.40;7.37;;;;;;;-6.90;78.89;100498.48;1724644;82;21273;-61
2020/12/08 05:43:12;;;;;;;13.37;6.73;;;;;;;-6.92;78.80;100501.97;1718283;82;21649;-60
2020/12/08 05:45:40;;;;;;;14.93;7.73;;;;;;;-6.96;78.82;100506.77;1730577;82;21575;-61
2020/12/08 05:48:08;;;;;;;14.00;6.90;;;;;;;-6.96;78.85;100518.56;1721155;81;21594;-62
2020/12/08 05:50:36;;;;;;;17.83;8.33;;;;;;;-6.95;78.83;100509.41;1728712;82;21459;-61
2020/12/08 05:53:03;;;;;;;15.77;6.97;;;;;;;-6.95;78.86;100516.39;1732982;82;21112;-60
2020/12/08 05:55:32;;;;;;;15.83;7.37;;;;;;;-6.93;78.86;100514.65;1723691;82;21159;-61
2020/12/08 05:58:06;;;;;;;14.50;6.97;;;;;;;-6.95;78.72;100514.66;1720776;82;21309;-61
2020/12/08 06:00:35;;;;;;;20.43;7.63;;;;;;;-6.96;78.76;100515.94;1730954;82;21314;-62
2020/12/08 06:03:12;;;;;;;14.77;7.07;;;;;;;-7.03;78.84;100512.42;1722016;81;21281;-61
2020/12/08 06:05:43;;;;;;;16.03;7.80;;;;;;;-6.97;79.12;100513.75;1715231;82;21171;-60
2020/12/08 06:08:19;;;;;;;15.30;6.60;;;;;;;-6.86;79.08;100516.42;1712082;82;21603;-62
2020/12/08 06:10:51;;;;;;;16.97;7.33;;;;;;;-6.80;78.44;100516.42;1718590;82;21737;-61
2020/12/08 06:13:31;;;;;;;12.73;6.60;;;;;;;-6.82;78.07;100523.41;1715695;82;21336;-60
2020/12/08 06:16:03;;;;;;;17.77;6.60;;;;;;;-6.88;78.13;100522.09;1717919;82;21709;-60
2020/12/08 06:18:36;;;;;;;14.00;6.83;;;;;;;-6.90;78.18;100513.32;1712558;82;21199;-60
2020/12/08 06:21:06;;;;;;;;;;;;;;;-6.90;78.27;100516.83;1735284;82;21171;-61
2020/12/08 06:23:34;;;;;;;16.23;7.27;;;;;;;-6.90;78.33;100511.58;1718548;82;20277;-61
2020/12/08 06:26:06;;;;;;;16.30;7.63;;;;;;;-6.92;78.45;100521.62;1734337;82;21203;-62
2020/12/08 06:28:35;;;;;;;13.57;6.77;;;;;;;-6.89;78.69;100513.78;1717265;82;21313;-61
2020/12/08 06:31:06;;;;;;;15.90;7.23;;;;;;;-6.82;78.67;100514.23;1720750;82;21681;-60
2020/12/08 06:33:52;;;;;;;14.40;7.37;;;;;;;-6.74;78.63;100516.84;1724380;82;21598;-61
2020/12/08 06:36:24;;;;;;;15.33;7.50;;;;;;;-6.71;78.53;100518.17;1719016;82;21214;-62
2020/12/08 06:39:08;;;;;;;15.43;7.35;;;;;;;-6.73;78.42;100510.75;1725129;82;21139;-62
2020/12/08 06:41:41;;;;;;;15.20;7.40;;;;;;;-6.76;78.70;100509.00;1721187;82;21219;-62
2020/12/08 06:44:19;;;;;;;18.67;8.37;;;;;;;-6.71;78.70;100512.51;1739445;82;21146;-62
2020/12/08 06:46:58;;;;;;;16.50;8.07;;;;;;;-6.68;78.63;100517.73;1719145;82;21672;-60
2020/12/08 06:49:35;;;;;;;15.80;7.63;;;;;;;-6.64;78.79;100520.79;1730227;82;21191;-64
2020/12/08 06:52:03;;;;;;;22.33;7.87;;;;;;;-6.56;78.49;100524.31;1720023;82;21163;-64
2020/12/08 06:54:31;;;;;;;14.67;7.17;;;;;;;-6.62;78.38;100523.00;1717764;82;21187;-64
2020/12/08 06:59:48;;;;;;;13.97;7.30;;;;;;;-6.59;78.47;100519.48;1819063;77;22863;-62
2020/12/08 07:02:16;;;;;;;16.10;7.73;;;;;;;-6.65;78.47;100517.75;1782442;80;21166;-64
2020/12/08 07:04:48;;;;;;;13.60;7.73;;;;;;;-6.66;78.60;100519.06;1772962;81;21174;-62
2020/12/08 07:07:24;;;;;;;12.63;7.53;;;;;;;-6.65;78.56;100533.47;1752618;81;21210;-62
2020/12/08 07:09:52;;;;;;;17.53;8.77;;;;;;;-6.65;78.64;100524.73;1784632;80;21163;-60
2020/12/08 07:12:20;;;;;;;17.67;7.27;;;;;;;-6.65;78.52;100519.48;1759794;81;21158;-63
2020/12/08 07:17:37;;;;;;;18.50;8.93;;;;;;;-6.53;78.70;100513.81;1757070;78;23588;-62
2020/12/08 07:20:05;;;;;;;16.30;8.37;;;;;;;-6.56;78.40;100514.26;1735019;82;21149;-61
2020/12/08 07:22:42;;;;;;;16.17;8.70;;;;;;;-6.62;78.21;100515.57;1730613;82;21111;-62
2020/12/08 07:25:12;;;;;;;18.50;7.80;;;;;;;-6.65;78.01;100507.69;1709123;82;21128;-62
2020/12/08 07:27:50;;;;;;;16.60;8.03;;;;;;;-6.67;78.27;100516.88;1732334;82;21210;-59
2020/12/08 07:30:20;;;;;;;21.57;8.07;;;;;;;-6.61;78.28;100517.30;1736239;82;21722;-63
2020/12/08 07:32:48;;;;;;;14.40;8.30;;;;;;;-6.57;78.11;100516.00;1735850;82;21174;-61
2020/12/08 07:35:27;;;;;;;15.87;8.50;;;;;;;-6.63;77.61;100516.43;1731266;82;21296;-60
2020/12/08 07:37:58;;;;;;;18.77;8.67;;;;;;;-6.68;77.74;100514.27;1739031;82;21179;-62
2020/12/08 07:40:36;;;;;;;21.33;9.37;;;;;;;-6.66;77.95;100523.84;1732519;82;21277;-63
2020/12/08 07:43:04;;;;;;;16.07;8.17;;;;;;;-6.57;78.06;100531.72;1726068;82;21139;-61
2020/12/08 07:45:33;;;;;;;18.53;8.20;;;;;;;-6.48;77.94;100522.56;1747516;82;21187;-63
2020/12/08 07:48:01;;;;;;;20.80;9.20;;;;;;;-6.45;77.32;100516.02;1731864;82;21327;-61
2020/12/08 07:50:31;;;;;;;18.23;8.27;;;;;;;-6.41;77.28;100509.90;1734649;82;21151;-62
2020/12/08 07:53:04;;;;;;;22.20;9.43;;;;;;;-6.36;77.50;100514.72;1735059;82;21151;-63
2020/12/08 07:55:42;;;;;;;;;;;;;;;-6.28;77.14;100519.52;1735567;82;21505;-61
2020/12/08 07:58:09;;;;;;;17.10;8.30;;;;;;;-6.18;77.13;100526.95;1715903;83;20148;-61
2020/12/08 08:00:37;;;;;;;21.77;8.90;;;;;;;-6.15;76.08;100528.24;1711363;83;21335;-62
2020/12/08 08:03:06;;;;;;;16.93;8.47;;;;;;;-6.19;75.68;100517.32;1711222;83;21561;-58
2020/12/08 08:05:34;;;;;;;16.67;7.47;;;;;;;-6.21;75.48;100520.38;1694842;84;21185;-58
2020/12/08 08:08:03;;;;;;;21.30;8.57;;;;;;;-6.25;74.99;100512.97;1727871;82;21179;-59
2020/12/08 08:10:31;;;;;;;18.20;8.57;;;;;;;-6.34;74.90;100517.33;1744493;82;21178;-58
2020/12/08 08:12:59;;;;;;;18.13;9.03;;;;;;;-6.38;75.06;100512.53;1738090;82;21178;-58
2020/12/08 08:15:27;;;;;;;15.33;8.37;;;;;;;-6.40;75.32;100512.94;1716521;82;21622;-61
2020/12/08 08:17:55;;;;;;;17.93;8.97;;;;;;;-6.36;75.47;100517.34;1727339;82;21617;-59
2020/12/08 08:20:24;;;;;;;21.10;7.57;;;;;;;-6.27;75.50;100521.70;1739116;82;21174;-60
2020/12/08 08:22:55;;;;;;;16.10;7.30;;;;;;;-6.18;75.44;100523.02;1736105;82;21179;-59
2020/12/08 08:25:23;;;;;;;19.90;8.87;;;;;;;-6.07;75.55;100510.73;1718147;82;21182;-61
2020/12/08 08:27:51;;;;;;;17.17;7.50;;;;;;;-5.93;75.40;100511.59;1745542;82;21627;-60
2020/12/08 08:30:20;;;;;;;14.57;5.90;;;;;;;-5.84;74.85;100509.39;1749949;82;21358;-58
2020/12/08 08:32:48;;;;;;;15.47;7.63;;;;;;;-5.87;73.95;100514.64;1747927;82;21146;-59
2020/12/08 08:35:16;;;;;;;18.20;8.23;;;;;;;-5.94;73.78;100515.09;1735864;82;21749;-61
2020/12/08 08:37:44;;;;;;;18.90;8.17;;;;;;;-5.93;74.02;100517.28;1750081;82;21174;-57
2020/12/08 08:40:13;;;;;;;18.33;8.27;;;;;;;-5.91;73.52;100511.59;1734602;82;21136;-59
2020/12/08 08:42:41;;;;;;;18.77;8.43;;;;;;;-5.90;73.77;100512.92;1749974;82;21182;-60
2020/12/08 08:45:09;;;;;;;18.63;7.70;;;;;;;-5.85;73.69;100501.10;1735614;82;21111;-62
2020/12/08 08:47:37;;;;;;;20.60;8.37;;;;;;;-5.79;73.98;100504.55;1730499;82;21340;-59
2020/12/08 08:50:07;;;;;;;19.07;8.23;;;;;;;-5.75;73.89;100504.97;1740191;82;21253;-60
2020/12/08 08:52:35;;;;;;;16.77;7.97;;;;;;;-5.70;73.92;100494.46;1742358;82;21328;-59
2020/12/08 08:55:03;;;;;;;18.33;8.43;;;;;;;-5.62;73.91;100483.48;1749015;82;21179;-60
2020/12/08 08:57:31;;;;;;;12.07;7.03;;;;;;;-5.62;73.38;100491.36;1721558;82;21163;-62
2020/12/08 09:00:00;;;;;;;15.73;7.47;;;;;;;-5.60;73.64;100483.92;1735008;82;21147;-61
2020/12/08 09:02:29;;;;;;;16.27;7.57;;;;;;;-5.49;73.79;100484.75;1720093;83;21194;-60
2020/12/08 09:04:57;;;;;;;15.87;8.27;;;;;;;-5.43;72.95;100485.16;1732041;82;21146;-67
2020/12/08 09:07:28;;;;;;;19.17;7.93;;;;;;;-5.45;72.55;100487.80;1732831;82;21187;-64
2020/12/08 09:09:57;;;;;;;24.03;8.67;;;;;;;-5.47;72.57;100491.30;1738799;82;21139;-66
2020/12/08 09:12:25;;;;;;;20.33;8.97;;;;;;;-5.43;72.86;100487.78;1738864;82;21167;-69
2020/12/08 09:14:57;;;;;;;13.67;6.67;;;;;;;-5.38;72.78;100497.41;1732430;82;21301;-64
2020/12/08 09:17:24;;;;;;;19.57;7.27;;;;;;;-5.39;72.23;100492.14;1720328;82;21626;-61
2020/12/08 09:19:53;;;;;;;16.77;7.33;;;;;;;-5.41;72.27;100492.16;1702415;83;21174;-62
2020/12/08 09:22:22;;;;;;;16.13;7.63;;;;;;;-5.45;72.05;100479.04;1735418;82;21151;-64
2020/12/08 09:24:51;;;;;;;17.53;8.10;;;;;;;-5.47;72.08;100486.05;1727842;82;21190;-60
2020/12/08 09:27:21;;;;;;;19.90;7.93;;;;;;;-5.48;72.33;100481.66;1730884;82;21574;-61
2020/12/08 09:29:53;;;;;;;17.93;7.70;;;;;;;-5.38;72.50;100484.70;1731687;82;21143;-61
2020/12/08 09:32:22;;;;;;;15.70;7.17;;;;;;;-5.29;72.51;100484.67;1734014;82;21171;-62
2020/12/08 09:34:50;;;;;;;14.77;7.10;;;;;;;-5.22;72.20;100478.48;1711113;84;21155;-63
2020/12/08 09:37:19;;;;;;;15.90;6.53;;;;;;;-5.22;72.24;100476.31;1751954;82;21297;-63
2020/12/08 09:39:47;;;;;;;16.27;7.33;;;;;;;-5.22;71.83;100476.31;1734921;82;21871;-63
2020/12/08 09:42:15;;;;;;;18.27;7.43;;;;;;;-5.29;71.81;100484.67;1739190;82;21598;-62
2020/12/08 09:44:45;;;;;;;15.93;7.60;;;;;;;-5.34;71.86;100482.49;1737487;82;21293;-62
2020/12/08 09:47:15;;;;;;;17.00;8.00;;;;;;;-5.34;71.93;100487.75;1741024;82;21166;-62
2020/12/08 09:49:45;;;;;;;15.80;7.17;;;;;;;-5.36;72.04;100492.14;1732446;82;21159;-62
2020/12/08 09:52:15;;;;;;;16.60;7.50;;;;;;;-5.33;72.33;100487.73;1734894;82;21178;-62
2020/12/08 09:54:43;;;;;;;14.77;6.97;;;;;;;-5.22;72.23;100482.88;1736779;82;21162;-64
2020/12/08 09:57:11;;;;;;;14.93;7.27;;;;;;;-5.18;71.74;100481.55;1694453;82;21322;-64
2020/12/08 09:59:39;;;;;;;16.63;7.87;;;;;;;-5.18;71.43;100485.92;1736437;82;21134;-62
2020/12/08 10:02:08;;;;;;;16.33;7.37;;;;;;;-5.17;71.48;100474.08;1715219;84;21174;-61
2020/12/08 10:04:36;;;;;;;16.73;7.73;;;;;;;-5.09;71.58;100483.25;1734853;82;21163;-61
2020/12/08 10:07:04;;;;;;;14.57;7.03;;;;;;;-5.01;71.59;100479.70;1737221;82;21171;-63
2020/12/08 10:09:32;;;;;;;13.30;7.57;;;;;;;-4.91;71.64;100478.74;1732037;82;21179;-61
2020/12/08 10:12:01;;;;;;;17.97;7.70;;;;;;;-4.87;71.18;100484.41;1745263;81;21571;-60
2020/12/08 10:14:30;;;;;;;15.90;8.37;;;;;;;-4.90;70.81;100484.45;1736501;82;21169;-61
2020/12/08 10:16:58;;;;;;;18.23;7.97;;;;;;;-4.94;71.14;100481.41;1737324;82;21163;-63
2020/12/08 10:19:27;;;;;;;22.83;9.17;;;;;;;-4.86;71.20;100478.72;1715241;82;21301;-63
2020/12/08 10:21:58;;;;;;;19.27;9.10;;;;;;;-4.87;70.93;100477.84;1733060;82;21326;-61
2020/12/08 10:24:27;;;;;;;22.83;9.30;;;;;;;-4.90;71.10;100475.68;1713721;82;21631;-62
2020/12/08 10:26:55;;;;;;;25.13;9.33;;;;;;;-4.89;70.81;100474.34;1718335;82;21745;-61
2020/12/08 10:29:23;;;;;;;15.47;8.57;;;;;;;-4.76;71.19;100470.75;1720867;82;21316;-63
2020/12/08 10:31:52;;;;;;;17.27;8.13;;;;;;;-4.62;70.86;100466.28;1703875;84;21143;-60
2020/12/08 10:34:24;;;;;;;16.07;7.70;;;;;;;-4.53;70.68;100464.45;1710738;82;21160;-60
2020/12/08 10:36:53;;;;;;;18.13;8.80;;;;;;;-4.47;70.66;100462.64;1714407;82;21241;-61
2020/12/08 10:39:22;;;;;;;19.20;9.13;;;;;;;-4.38;70.67;100457.74;1700007;82;21314;-62
2020/12/08 10:41:52;;;;;;;18.63;7.67;;;;;;;-4.31;70.60;100456.81;1718224;82;21203;-68
2020/12/08 10:44:20;;;;;;;14.73;7.67;;;;;;;-4.32;70.00;100461.19;1703969;82;21256;-65
2020/12/08 10:46:50;;;;;;;23.07;7.67;;;;;;;-4.44;69.88;100457.37;1719855;82;21151;-67
2020/12/08 10:49:20;;;;;;;18.73;8.13;;;;;;;-4.52;70.09;100459.17;1733083;82;21168;-66
2020/12/08 10:51:51;;;;;;;17.83;8.83;;;;;;;-4.63;70.09;100457.94;1724378;82;21314;-66
2020/12/08 10:54:20;;;;;;;21.60;9.37;;;;;;;-4.73;70.41;100454.97;1707790;83;21229;-64
2020/12/08 10:56:52;;;;;;;16.33;8.23;;;;;;;-4.80;70.38;100451.94;1721710;83;21143;-65
2020/12/08 10:59:20;;;;;;;18.30;8.73;;;;;;;-4.80;70.71;100458.95;1723883;83;21306;-67
2020/12/08 11:01:50;;;;;;;22.40;8.70;;;;;;;-4.73;70.96;100453.66;1712693;82;21208;-65
2020/12/08 11:04:19;;;;;;;21.37;8.87;;;;;;;-4.63;71.04;100450.52;1730596;82;21313;-66
2020/12/08 11:06:47;;;;;;;18.27;9.07;;;;;;;-4.49;70.67;100455.64;1726979;82;21594;-66
2020/12/08 11:09:17;;;;;;;20.03;9.17;;;;;;;-4.49;70.19;100459.59;1710010;83;21152;-64
2020/12/08 11:11:45;;;;;;;18.47;8.50;;;;;;;-4.51;70.50;100455.67;1721877;82;21172;-66
2020/12/08 11:14:14;;;;;;;18.20;7.57;;;;;;;-4.46;70.48;100451.69;1717236;82;21414;-66
2020/12/08 11:16:43;;;;;;;22.03;9.10;;;;;;;-4.42;70.64;100451.65;1720554;82;21317;-65
2020/12/08 11:19:10;;;;;;;16.47;7.80;;;;;;;-4.32;70.67;100453.73;1717843;83;21546;-65
2020/12/08 11:21:41;;;;;;;22.47;10.10;;;;;;;-4.22;70.52;100445.77;1732859;82;21183;-66
2020/12/08 11:24:11;;;;;;;20.03;10.10;;;;;;;-4.11;70.06;100443.02;1725083;82;21175;-66
2020/12/08 11:26:39;;;;;;;21.40;9.13;;;;;;;-4.03;69.72;100443.81;1738037;82;21706;-66
2020/12/08 11:29:07;;;;;;;19.13;9.77;;;;;;;-4.04;69.34;100442.08;1729702;81;21120;-66
2020/12/08 11:31:35;;;;;;;23.30;9.27;;;;;;;-4.11;69.49;100446.97;1741305;82;21685;-65
2020/12/08 11:34:04;;;;;;;19.53;9.70;;;;;;;-4.14;69.51;100443.04;1733658;82;21757;-65
2020/12/08 11:36:32;;;;;;;19.20;9.17;;;;;;;-4.20;68.84;100447.94;1728389;82;21285;-64